sensor_id;sensor_type;location;lat;lon;timestamp;pressure;altitude;pressure_sealevel;temperature;humidity
10606;BME280;5350;42.698;23.148;2022-08-05T00:01:10;93790.84;;;18.82;100.00
10606;BME280;5350;42.698;23.148;2022-08-05T00:03:36;93799.50;;;18.79;100.00
10606;BME280;5350;42.698;23.148;2022-08-05T00:06:03;93789.94;;;18.78;100.00
10606;BME280;5350;42.698;23.148;2022-08-05T00:08:29;93789.19;;;18.77;100.00
10606;BME280;5350;42.698;23.148;2022-08-05T00:10:56;93788.50;;;18.80;100.00
10606;BME280;5350;42.698;23.148;2022-08-05T00:13:22;93790.84;;;18.82;100.00
10606;BME280;5350;42.698;23.148;2022-08-05T00:15:50;93788.50;;;18.80;100.00
10606;BME280;5350;42.698;23.148;2022-08-05T00:18:16;93786.06;;;18.87;100.00
10606;BME280;5350;42.698;23.148;2022-08-05T00:20:43;93787.16;;;18.86;100.00
10606;BME280;5350;42.698;23.148;2022-08-05T00:23:09;93788.97;;;18.70;100.00
10606;BME280;5350;42.698;23.148;2022-08-05T00:25:36;93786.19;;;18.55;100.00
10606;BME280;5350;42.698;23.148;2022-08-05T00:28:02;93788.41;;;18.53;100.00
10606;BME280;5350;42.698;23.148;2022-08-05T00:30:29;93778.97;;;18.43;100.00
10606;BME280;5350;42.698;23.148;2022-08-05T00:32:57;93786.81;;;18.27;100.00
10606;BME280;5350;42.698;23.148;2022-08-05T00:35:23;93779.06;;;18.22;100.00
10606;BME280;5350;42.698;23.148;2022-08-05T00:37:50;93781.41;;;18.24;100.00
10606;BME280;5350;42.698;23.148;2022-08-05T00:40:17;93772.41;;;18.28;100.00
10606;BME280;5350;42.698;23.148;2022-08-05T00:42:43;93769.41;;;18.30;100.00
10606;BME280;5350;42.698;23.148;2022-08-05T00:45:10;93741.78;;;17.98;100.00
10606;BME280;5350;42.698;23.148;2022-08-05T00:47:36;93772.41;;;18.16;100.00
10606;BME280;5350;42.698;23.148;2022-08-05T00:50:04;93776.06;;;18.24;100.00
10606;BME280;5350;42.698;23.148;2022-08-05T00:52:31;93769.53;;;18.33;100.00
10606;BME280;5350;42.698;23.148;2022-08-05T00:54:58;93779.28;;;18.29;100.00
10606;BME280;5350;42.698;23.148;2022-08-05T00:57:24;93777.06;;;18.31;100.00
10606;BME280;5350;42.698;23.148;2022-08-05T00:59:51;93780.94;;;18.34;100.00
10606;BME280;5350;42.698;23.148;2022-08-05T01:02:18;93770.41;;;18.25;100.00
10606;BME280;5350;42.698;23.148;2022-08-05T01:04:44;93763.53;;;18.12;100.00
10606;BME280;5350;42.698;23.148;2022-08-05T01:07:12;93765.19;;;18.05;100.00
10606;BME280;5350;42.698;23.148;2022-08-05T01:09:39;93770.84;;;17.91;100.00
10606;BME280;5350;42.698;23.148;2022-08-05T01:12:06;93774.56;;;17.78;100.00
10606;BME280;5350;42.698;23.148;2022-08-05T01:14:35;93701.34;;;17.15;100.00
10606;BME280;5350;42.698;23.148;2022-08-05T01:17:04;93776.53;;;17.69;100.00
10606;BME280;5350;42.698;23.148;2022-08-05T01:19:32;93773.56;;;17.71;100.00
10606;BME280;5350;42.698;23.148;2022-08-05T01:22:06;93767.47;;;17.70;100.00
10606;BME280;5350;42.698;23.148;2022-08-05T01:29:58;93733.56;;;17.46;100.00
10606;BME280;5350;42.698;23.148;2022-08-05T01:32:26;93777.91;;;17.75;100.00
10606;BME280;5350;42.698;23.148;2022-08-05T01:34:56;93773.69;;;17.74;100.00
10606;BME280;5350;42.698;23.148;2022-08-05T01:37:24;93768.72;;;17.85;100.00
10606;BME280;5350;42.698;23.148;2022-08-05T01:39:52;93764.28;;;17.89;100.00
10606;BME280;5350;42.698;23.148;2022-08-05T01:42:19;93766.38;;;17.83;100.00
10606;BME280;5350;42.698;23.148;2022-08-05T01:44:48;93772.44;;;17.72;100.00
10606;BME280;5350;42.698;23.148;2022-08-05T01:47:18;93773.41;;;17.55;100.00
10606;BME280;5350;42.698;23.148;2022-08-05T01:49:46;93781.13;;;17.48;100.00
10606;BME280;5350;42.698;23.148;2022-08-05T01:52:14;93784.88;;;17.47;100.00
10606;BME280;5350;42.698;23.148;2022-08-05T01:54:45;93787.66;;;17.50;100.00
10606;BME280;5350;42.698;23.148;2022-08-05T01:57:12;93791.13;;;17.51;100.00
10606;BME280;5350;42.698;23.148;2022-08-05T01:59:39;93789.47;;;17.38;100.00
10606;BME280;5350;42.698;23.148;2022-08-05T02:02:07;93787.94;;;17.37;100.00
10606;BME280;5350;42.698;23.148;2022-08-05T02:04:38;93778.28;;;17.32;100.00
10606;BME280;5350;42.698;23.148;2022-08-05T02:07:05;93781.22;;;17.19;100.00
10606;BME280;5350;42.698;23.148;2022-08-05T02:09:32;93780.28;;;17.15;100.00
10606;BME280;5350;42.698;23.148;2022-08-05T02:12:00;93784.44;;;17.24;100.00
10606;BME280;5350;42.698;23.148;2022-08-05T02:14:29;93784.84;;;17.14;100.00
10606;BME280;5350;42.698;23.148;2022-08-05T02:16:59;93790.41;;;17.21;100.00
10606;BME280;5350;42.698;23.148;2022-08-05T02:19:29;93785.59;;;17.15;100.00
10606;BME280;5350;42.698;23.148;2022-08-05T02:21:58;93783.34;;;17.05;100.00
10606;BME280;5350;42.698;23.148;2022-08-05T02:24:26;93773.13;;;16.95;100.00
10606;BME280;5350;42.698;23.148;2022-08-05T02:26:54;93779.88;;;16.63;100.00
10606;BME280;5350;42.698;23.148;2022-08-05T02:29:22;93776.34;;;16.79;100.00
10606;BME280;5350;42.698;23.148;2022-08-05T02:31:49;93787.34;;;16.69;100.00
10606;BME280;5350;42.698;23.148;2022-08-05T02:34:16;93778.38;;;16.83;100.00
10606;BME280;5350;42.698;23.148;2022-08-05T02:36:47;93779.06;;;16.71;100.00
10606;BME280;5350;42.698;23.148;2022-08-05T02:39:16;93779.03;;;16.50;100.00
10606;BME280;5350;42.698;23.148;2022-08-05T02:41:44;93783.84;;;16.48;100.00
10606;BME280;5350;42.698;23.148;2022-08-05T02:44:10;93790.44;;;16.51;100.00
10606;BME280;5350;42.698;23.148;2022-08-05T02:46:39;93791.53;;;16.50;100.00
10606;BME280;5350;42.698;23.148;2022-08-05T02:49:06;93780.94;;;16.41;100.00
10606;BME280;5350;42.698;23.148;2022-08-05T02:51:32;93783.44;;;16.38;100.00
10606;BME280;5350;42.698;23.148;2022-08-05T02:54:00;93781.56;;;16.38;100.00
10606;BME280;5350;42.698;23.148;2022-08-05T02:56:28;93791.81;;;16.48;100.00
10606;BME280;5350;42.698;23.148;2022-08-05T02:58:55;93788.97;;;16.62;100.00
10606;BME280;5350;42.698;23.148;2022-08-05T03:01:24;93795.38;;;16.61;100.00
10606;BME280;5350;42.698;23.148;2022-08-05T03:03:51;93791.47;;;16.58;100.00
10606;BME280;5350;42.698;23.148;2022-08-05T03:06:19;93791.09;;;16.39;100.00
10606;BME280;5350;42.698;23.148;2022-08-05T03:08:46;93786.00;;;16.26;100.00
10606;BME280;5350;42.698;23.148;2022-08-05T03:11:17;93786.09;;;16.00;100.00
10606;BME280;5350;42.698;23.148;2022-08-05T03:13:45;93784.13;;;16.26;100.00
10606;BME280;5350;42.698;23.148;2022-08-05T03:16:12;93781.56;;;16.38;100.00
10606;BME280;5350;42.698;23.148;2022-08-05T03:18:38;93784.09;;;16.35;100.00
10606;BME280;5350;42.698;23.148;2022-08-05T03:21:05;93785.34;;;16.37;100.00
10606;BME280;5350;42.698;23.148;2022-08-05T03:23:32;93782.69;;;16.37;100.00
10606;BME280;5350;42.698;23.148;2022-08-05T03:25:58;93783.38;;;16.46;100.00
10606;BME280;5350;42.698;23.148;2022-08-05T03:28:25;93783.38;;;16.46;100.00
10606;BME280;5350;42.698;23.148;2022-08-05T03:30:53;93785.47;;;16.41;100.00
10606;BME280;5350;42.698;23.148;2022-08-05T03:33:21;93787.00;;;16.50;100.00
10606;BME280;5350;42.698;23.148;2022-08-05T03:35:47;93787.72;;;16.59;100.00
10606;BME280;5350;42.698;23.148;2022-08-05T03:38:14;93785.47;;;16.70;100.00
10606;BME280;5350;42.698;23.148;2022-08-05T03:40:41;93779.84;;;16.71;100.00
10606;BME280;5350;42.698;23.148;2022-08-05T03:43:07;93781.50;;;16.55;100.00
10606;BME280;5350;42.698;23.148;2022-08-05T03:45:34;93781.19;;;16.48;100.00
10606;BME280;5350;42.698;23.148;2022-08-05T03:48:02;93780.25;;;16.53;100.00
10606;BME280;5350;42.698;23.148;2022-08-05T03:50:32;93782.53;;;16.63;100.00
10606;BME280;5350;42.698;23.148;2022-08-05T03:53:03;93780.50;;;16.68;100.00
10606;BME280;5350;42.698;23.148;2022-08-05T03:55:32;93792.41;;;16.62;100.00
10606;BME280;5350;42.698;23.148;2022-08-05T03:58:01;93784.44;;;16.62;100.00
10606;BME280;5350;42.698;23.148;2022-08-05T04:00:28;93784.44;;;16.62;100.00
10606;BME280;5350;42.698;23.148;2022-08-05T04:02:57;93787.22;;;16.66;100.00
10606;BME280;5350;42.698;23.148;2022-08-05T04:05:26;93773.44;;;16.72;100.00
10606;BME280;5350;42.698;23.148;2022-08-05T04:07:54;93780.22;;;16.82;100.00
10606;BME280;5350;42.698;23.148;2022-08-05T04:10:21;93781.28;;;16.90;100.00
10606;BME280;5350;42.698;23.148;2022-08-05T04:12:48;93785.31;;;16.96;100.00
10606;BME280;5350;42.698;23.148;2022-08-05T04:15:14;93781.03;;;17.03;100.00
10606;BME280;5350;42.698;23.148;2022-08-05T04:17:41;93788.03;;;17.08;100.00
10606;BME280;5350;42.698;23.148;2022-08-05T04:20:15;93790.75;;;17.20;100.00
10606;BME280;5350;42.698;23.148;2022-08-05T04:22:44;93788.78;;;17.29;100.00
10606;BME280;5350;42.698;23.148;2022-08-05T04:25:10;93790.72;;;17.40;100.00
10606;BME280;5350;42.698;23.148;2022-08-05T04:27:37;93782.66;;;17.49;100.00
10606;BME280;5350;42.698;23.148;2022-08-05T04:30:04;93778.53;;;17.60;100.00
10606;BME280;5350;42.698;23.148;2022-08-05T04:32:31;93777.31;;;17.70;100.00
10606;BME280;5350;42.698;23.148;2022-08-05T04:34:57;93781.56;;;17.83;100.00
10606;BME280;5350;42.698;23.148;2022-08-05T04:37:24;93781.94;;;17.93;100.00
10606;BME280;5350;42.698;23.148;2022-08-05T04:39:51;93770.75;;;18.00;100.00
10606;BME280;5350;42.698;23.148;2022-08-05T04:42:18;93779.38;;;18.09;100.00
10606;BME280;5350;42.698;23.148;2022-08-05T04:44:44;93786.97;;;18.19;100.00
10606;BME280;5350;42.698;23.148;2022-08-05T04:47:11;93786.50;;;18.29;100.00
10606;BME280;5350;42.698;23.148;2022-08-05T04:49:37;93783.75;;;18.38;100.00
10606;BME280;5350;42.698;23.148;2022-08-05T04:52:04;93787.66;;;18.52;100.00
10606;BME280;5350;42.698;23.148;2022-08-05T04:54:31;93782.97;;;18.61;100.00
10606;BME280;5350;42.698;23.148;2022-08-05T04:56:59;93788.19;;;18.70;100.00
10606;BME280;5350;42.698;23.148;2022-08-05T04:59:25;93781.66;;;18.79;100.00
10606;BME280;5350;42.698;23.148;2022-08-05T05:01:52;93779.47;;;18.97;100.00
10606;BME280;5350;42.698;23.148;2022-08-05T05:04:18;93781.69;;;19.07;100.00
10606;BME280;5350;42.698;23.148;2022-08-05T05:06:45;93777.00;;;19.16;100.00
10606;BME280;5350;42.698;23.148;2022-08-05T05:09:11;93782.19;;;19.25;100.00
10606;BME280;5350;42.698;23.148;2022-08-05T05:11:38;93775.50;;;19.31;100.00
10606;BME280;5350;42.698;23.148;2022-08-05T05:14:06;93778.41;;;19.38;100.00
10606;BME280;5350;42.698;23.148;2022-08-05T05:16:32;93775.31;;;19.36;100.00
10606;BME280;5350;42.698;23.148;2022-08-05T05:18:59;93781.59;;;19.43;100.00
10606;BME280;5350;42.698;23.148;2022-08-05T05:21:26;93781.09;;;19.53;100.00
10606;BME280;5350;42.698;23.148;2022-08-05T05:23:52;93778.63;;;19.60;100.00
10606;BME280;5350;42.698;23.148;2022-08-05T05:26:19;93781.25;;;19.72;100.00
10606;BME280;5350;42.698;23.148;2022-08-05T05:28:45;93779.94;;;19.82;100.00
10606;BME280;5350;42.698;23.148;2022-08-05T05:31:13;93778.34;;;19.93;100.00
10606;BME280;5350;42.698;23.148;2022-08-05T05:33:40;93783.53;;;20.02;100.00
10606;BME280;5350;42.698;23.148;2022-08-05T05:36:06;93777.44;;;20.17;100.00
10606;BME280;5350;42.698;23.148;2022-08-05T05:38:33;93781.84;;;20.25;100.00
10606;BME280;5350;42.698;23.148;2022-08-05T05:40:59;93778.56;;;20.31;100.00
10606;BME280;5350;42.698;23.148;2022-08-05T05:43:26;93785.28;;;20.41;99.61
10606;BME280;5350;42.698;23.148;2022-08-05T05:45:52;93783.56;;;20.48;100.00
10606;BME280;5350;42.698;23.148;2022-08-05T05:48:20;93785.72;;;20.58;98.81
10606;BME280;5350;42.698;23.148;2022-08-05T05:50:47;93785.53;;;20.67;98.58
10606;BME280;5350;42.698;23.148;2022-08-05T05:53:13;93794.66;;;20.82;97.50
10606;BME280;5350;42.698;23.148;2022-08-05T05:55:40;93794.59;;;20.97;97.74
10606;BME280;5350;42.698;23.148;2022-08-05T05:58:06;93799.16;;;21.12;94.33
10606;BME280;5350;42.698;23.148;2022-08-05T06:00:33;93793.88;;;21.16;92.71
10606;BME280;5350;42.698;23.148;2022-08-05T06:02:59;93800.16;;;21.23;93.66
10606;BME280;5350;42.698;23.148;2022-08-05T06:05:28;93801.56;;;21.36;93.29
10606;BME280;5350;42.698;23.148;2022-08-05T06:07:54;93794.81;;;21.42;94.76
10606;BME280;5350;42.698;23.148;2022-08-05T06:10:21;93796.94;;;21.53;90.62
10606;BME280;5350;42.698;23.148;2022-08-05T06:12:47;93801.72;;;21.63;91.18
10606;BME280;5350;42.698;23.148;2022-08-05T06:15:14;93799.31;;;21.77;93.31
10606;BME280;5350;42.698;23.148;2022-08-05T06:17:40;93799.13;;;21.85;94.26
10606;BME280;5350;42.698;23.148;2022-08-05T06:20:07;93800.84;;;21.97;92.89
10606;BME280;5350;42.698;23.148;2022-08-05T06:22:35;93793.56;;;22.16;88.24
10606;BME280;5350;42.698;23.148;2022-08-05T06:25:02;93796.06;;;22.28;89.21
10606;BME280;5350;42.698;23.148;2022-08-05T06:27:29;93789.44;;;22.45;85.40
10606;BME280;5350;42.698;23.148;2022-08-05T06:29:55;93794.94;;;22.52;86.81
10606;BME280;5350;42.698;23.148;2022-08-05T06:32:22;93792.72;;;22.58;85.21
10606;BME280;5350;42.698;23.148;2022-08-05T06:34:48;93782.72;;;22.77;89.09
10606;BME280;5350;42.698;23.148;2022-08-05T06:37:15;93780.94;;;22.88;85.89
10606;BME280;5350;42.698;23.148;2022-08-05T06:39:43;93788.00;;;23.00;79.81
10606;BME280;5350;42.698;23.148;2022-08-05T06:42:09;93792.50;;;23.19;77.88
10606;BME280;5350;42.698;23.148;2022-08-05T06:44:37;93788.03;;;23.30;77.47
10606;BME280;5350;42.698;23.148;2022-08-05T06:47:04;93784.75;;;23.40;77.32
10606;BME280;5350;42.698;23.148;2022-08-05T06:49:30;93788.75;;;23.53;79.12
10606;BME280;5350;42.698;23.148;2022-08-05T06:51:57;93786.25;;;23.70;77.02
10606;BME280;5350;42.698;23.148;2022-08-05T06:54:23;93784.88;;;23.83;75.25
10606;BME280;5350;42.698;23.148;2022-08-05T06:56:51;93784.22;;;23.97;74.88
10606;BME280;5350;42.698;23.148;2022-08-05T06:59:18;93783.97;;;24.06;76.87
10606;BME280;5350;42.698;23.148;2022-08-05T07:01:44;93782.91;;;24.14;81.31
10606;BME280;5350;42.698;23.148;2022-08-05T07:04:11;93785.34;;;24.29;80.15
10606;BME280;5350;42.698;23.148;2022-08-05T07:06:37;93761.72;;;24.05;74.28
10606;BME280;5350;42.698;23.148;2022-08-05T07:09:04;93763.06;;;24.29;74.96
10606;BME280;5350;42.698;23.148;2022-08-05T07:11:31;93791.31;;;24.49;69.28
10606;BME280;5350;42.698;23.148;2022-08-05T07:13:59;93795.28;;;24.69;69.63
10606;BME280;5350;42.698;23.148;2022-08-05T07:16:43;93793.50;;;24.80;65.34
10606;BME280;5350;42.698;23.148;2022-08-05T07:19:15;93796.28;;;24.98;64.21
10606;BME280;5350;42.698;23.148;2022-08-05T07:21:42;93791.78;;;25.16;62.42
10606;BME280;5350;42.698;23.148;2022-08-05T07:24:09;93799.97;;;25.33;60.48
10606;BME280;5350;42.698;23.148;2022-08-05T07:26:36;93794.22;;;25.35;64.33
10606;BME280;5350;42.698;23.148;2022-08-05T07:29:04;93761.09;;;25.24;63.09
10606;BME280;5350;42.698;23.148;2022-08-05T07:31:30;93788.19;;;25.56;60.02
10606;BME280;5350;42.698;23.148;2022-08-05T07:33:57;93796.28;;;25.63;60.14
10606;BME280;5350;42.698;23.148;2022-08-05T07:36:23;93795.59;;;25.80;58.81
10606;BME280;5350;42.698;23.148;2022-08-05T07:38:50;93789.09;;;25.98;56.92
10606;BME280;5350;42.698;23.148;2022-08-05T07:41:17;93791.81;;;25.95;56.57
10606;BME280;5350;42.698;23.148;2022-08-05T07:43:44;93791.47;;;26.10;59.16
10606;BME280;5350;42.698;23.148;2022-08-05T07:46:12;93790.75;;;26.28;59.34
10606;BME280;5350;42.698;23.148;2022-08-05T07:48:38;93791.91;;;26.44;59.77
10606;BME280;5350;42.698;23.148;2022-08-05T07:51:05;93789.22;;;26.55;56.17
10606;BME280;5350;42.698;23.148;2022-08-05T07:53:31;93786.56;;;26.76;56.76
10606;BME280;5350;42.698;23.148;2022-08-05T07:56:00;93780.00;;;26.91;53.11
10606;BME280;5350;42.698;23.148;2022-08-05T07:58:26;93781.91;;;27.01;53.22
10606;BME280;5350;42.698;23.148;2022-08-05T08:00:53;93784.59;;;27.15;51.93
10606;BME280;5350;42.698;23.148;2022-08-05T08:03:21;93788.44;;;27.21;50.47
10606;BME280;5350;42.698;23.148;2022-08-05T08:05:48;93776.06;;;27.38;51.62
10606;BME280;5350;42.698;23.148;2022-08-05T08:08:16;93774.91;;;27.42;54.20
10606;BME280;5350;42.698;23.148;2022-08-05T08:10:43;93781.44;;;27.55;53.26
10606;BME280;5350;42.698;23.148;2022-08-05T08:13:09;93782.88;;;27.70;47.61
10606;BME280;5350;42.698;23.148;2022-08-05T08:15:36;93785.16;;;27.86;49.21
10606;BME280;5350;42.698;23.148;2022-08-05T08:18:03;93779.31;;;27.95;47.04
10606;BME280;5350;42.698;23.148;2022-08-05T08:20:30;93779.25;;;28.16;43.50
10606;BME280;5350;42.698;23.148;2022-08-05T08:22:57;93777.59;;;28.29;42.32
10606;BME280;5350;42.698;23.148;2022-08-05T08:25:24;93781.03;;;28.33;41.09
10606;BME280;5350;42.698;23.148;2022-08-05T08:27:52;93776.28;;;28.51;42.17
10606;BME280;5350;42.698;23.148;2022-08-05T08:30:19;93769.97;;;28.72;42.89
10606;BME280;5350;42.698;23.148;2022-08-05T08:32:45;93774.94;;;28.80;40.89
10606;BME280;5350;42.698;23.148;2022-08-05T08:35:11;93775.25;;;28.86;39.74
10606;BME280;5350;42.698;23.148;2022-08-05T08:37:39;93773.66;;;28.95;39.91
10606;BME280;5350;42.698;23.148;2022-08-05T08:40:06;93770.06;;;29.05;41.26
10606;BME280;5350;42.698;23.148;2022-08-05T08:42:33;93775.31;;;29.27;39.25
10606;BME280;5350;42.698;23.148;2022-08-05T08:44:59;93777.09;;;29.40;39.49
10606;BME280;5350;42.698;23.148;2022-08-05T08:47:27;93756.47;;;29.50;37.06
10606;BME280;5350;42.698;23.148;2022-08-05T08:49:56;93758.47;;;29.42;38.75
10606;BME280;5350;42.698;23.148;2022-08-05T08:52:23;93766.84;;;29.55;38.02
10606;BME280;5350;42.698;23.148;2022-08-05T08:54:52;93765.88;;;29.72;38.56
10606;BME280;5350;42.698;23.148;2022-08-05T08:57:18;93767.28;;;29.87;37.89
10606;BME280;5350;42.698;23.148;2022-08-05T08:59:45;93760.47;;;30.02;36.21
10606;BME280;5350;42.698;23.148;2022-08-05T09:02:12;93767.09;;;30.01;36.51
10606;BME280;5350;42.698;23.148;2022-08-05T09:04:39;93768.16;;;30.07;36.50
10606;BME280;5350;42.698;23.148;2022-08-05T09:07:06;93771.53;;;30.15;38.57
10606;BME280;5350;42.698;23.148;2022-08-05T09:09:33;93761.38;;;30.22;36.98
10606;BME280;5350;42.698;23.148;2022-08-05T09:12:01;93751.00;;;30.44;36.23
10606;BME280;5350;42.698;23.148;2022-08-05T09:14:29;93756.94;;;30.62;40.23
10606;BME280;5350;42.698;23.148;2022-08-05T09:16:56;93749.78;;;30.71;35.57
10606;BME280;5350;42.698;23.148;2022-08-05T09:19:23;93743.03;;;30.83;36.11
10606;BME280;5350;42.698;23.148;2022-08-05T09:21:49;93737.84;;;30.92;36.10
10606;BME280;5350;42.698;23.148;2022-08-05T09:24:16;93740.84;;;30.98;34.51
10606;BME280;5350;42.698;23.148;2022-08-05T09:26:45;93735.63;;;31.07;34.73
10606;BME280;5350;42.698;23.148;2022-08-05T09:29:13;93739.03;;;31.11;34.22
10606;BME280;5350;42.698;23.148;2022-08-05T09:31:40;93737.03;;;31.15;33.85
10606;BME280;5350;42.698;23.148;2022-08-05T09:34:08;93740.06;;;31.20;33.01
10606;BME280;5350;42.698;23.148;2022-08-05T09:36:39;93736.06;;;31.05;32.40
10606;BME280;5350;42.698;23.148;2022-08-05T09:39:06;93730.09;;;31.33;32.64
10606;BME280;5350;42.698;23.148;2022-08-05T09:41:33;93727.78;;;31.32;30.95
10606;BME280;5350;42.698;23.148;2022-08-05T09:43:59;93725.69;;;31.20;32.13
10606;BME280;5350;42.698;23.148;2022-08-05T09:46:28;93711.06;;;31.14;31.06
10606;BME280;5350;42.698;23.148;2022-08-05T09:48:55;93723.22;;;31.29;31.39
10606;BME280;5350;42.698;23.148;2022-08-05T09:51:32;93717.53;;;31.43;33.70
10606;BME280;5350;42.698;23.148;2022-08-05T09:53:59;93714.09;;;31.59;33.44
10606;BME280;5350;42.698;23.148;2022-08-05T09:56:26;93718.47;;;31.72;31.27
10606;BME280;5350;42.698;23.148;2022-08-05T09:58:57;93715.88;;;31.85;32.98
10606;BME280;5350;42.698;23.148;2022-08-05T10:01:23;93713.75;;;31.96;30.64
10606;BME280;5350;42.698;23.148;2022-08-05T10:03:55;93708.72;;;31.94;30.04
10606;BME280;5350;42.698;23.148;2022-08-05T10:06:23;93699.19;;;32.02;30.67
10606;BME280;5350;42.698;23.148;2022-08-05T10:08:50;93701.44;;;32.07;33.17
10606;BME280;5350;42.698;23.148;2022-08-05T10:11:17;93692.34;;;32.14;32.61
10606;BME280;5350;42.698;23.148;2022-08-05T10:13:43;93698.91;;;32.33;31.92
10606;BME280;5350;42.698;23.148;2022-08-05T10:18:51;93659.34;;;32.28;30.64
10606;BME280;5350;42.698;23.148;2022-08-05T10:21:19;93683.28;;;32.53;33.45
10606;BME280;5350;42.698;23.148;2022-08-05T10:23:46;93691.78;;;32.71;30.29
10606;BME280;5350;42.698;23.148;2022-08-05T10:26:12;93688.19;;;32.74;30.90
10606;BME280;5350;42.698;23.148;2022-08-05T10:28:39;93679.94;;;32.93;31.63
10606;BME280;5350;42.698;23.148;2022-08-05T10:31:06;93685.94;;;33.17;32.02
10606;BME280;5350;42.698;23.148;2022-08-05T10:33:33;93687.50;;;33.31;29.75
10606;BME280;5350;42.698;23.148;2022-08-05T10:36:00;93686.34;;;33.44;31.22
10606;BME280;5350;42.698;23.148;2022-08-05T10:38:30;93682.94;;;33.56;29.15
10606;BME280;5350;42.698;23.148;2022-08-05T10:41:00;93683.19;;;33.74;31.23
10606;BME280;5350;42.698;23.148;2022-08-05T10:43:30;93674.25;;;33.87;29.36
10606;BME280;5350;42.698;23.148;2022-08-05T10:46:00;93676.19;;;33.73;28.36
10606;BME280;5350;42.698;23.148;2022-08-05T10:48:30;93675.38;;;34.02;27.83
10606;BME280;5350;42.698;23.148;2022-08-05T10:50:58;93666.66;;;34.07;29.24
10606;BME280;5350;42.698;23.148;2022-08-05T10:53:33;93666.31;;;34.17;28.04
10606;BME280;5350;42.698;23.148;2022-08-05T10:56:03;93661.94;;;34.20;29.39
10606;BME280;5350;42.698;23.148;2022-08-05T10:58:31;93661.06;;;34.48;27.61
10606;BME280;5350;42.698;23.148;2022-08-05T11:00:57;93663.00;;;34.73;28.52
10606;BME280;5350;42.698;23.148;2022-08-05T11:03:24;93657.13;;;34.62;30.02
10606;BME280;5350;42.698;23.148;2022-08-05T11:06:08;93657.56;;;34.60;27.45
10606;BME280;5350;42.698;23.148;2022-08-05T11:08:36;93655.84;;;34.16;27.45
10606;BME280;5350;42.698;23.148;2022-08-05T11:13:48;93655.06;;;34.28;28.91
10606;BME280;5350;42.698;23.148;2022-08-05T11:16:20;93652.22;;;34.44;26.66
10606;BME280;5350;42.698;23.148;2022-08-05T11:18:47;93648.16;;;34.48;26.69
10606;BME280;5350;42.698;23.148;2022-08-05T11:21:34;93651.06;;;34.79;26.18
10606;BME280;5350;42.698;23.148;2022-08-05T11:24:07;93650.84;;;34.74;26.00
10606;BME280;5350;42.698;23.148;2022-08-05T11:26:34;93630.25;;;34.47;28.41
10606;BME280;5350;42.698;23.148;2022-08-05T11:29:01;93640.66;;;34.87;27.51
10606;BME280;5350;42.698;23.148;2022-08-05T11:31:31;93645.03;;;34.84;27.02
10606;BME280;5350;42.698;23.148;2022-08-05T11:34:00;93643.69;;;35.01;27.54
10606;BME280;5350;42.698;23.148;2022-08-05T11:42:04;93642.94;;;34.88;25.91
10606;BME280;5350;42.698;23.148;2022-08-05T11:44:35;93629.72;;;34.87;27.32
10606;BME280;5350;42.698;23.148;2022-08-05T11:47:03;93637.50;;;34.76;26.22
10606;BME280;5350;42.698;23.148;2022-08-05T11:49:31;93636.25;;;34.42;27.09
10606;BME280;5350;42.698;23.148;2022-08-05T11:51:57;93632.03;;;34.29;26.30
10606;BME280;5350;42.698;23.148;2022-08-05T11:54:25;93623.56;;;34.61;27.97
10606;BME280;5350;42.698;23.148;2022-08-05T11:56:52;93623.41;;;35.11;25.60
10606;BME280;5350;42.698;23.148;2022-08-05T11:59:21;93618.72;;;35.33;26.60
10606;BME280;5350;42.698;23.148;2022-08-05T12:01:53;93620.13;;;35.38;26.76
10606;BME280;5350;42.698;23.148;2022-08-05T12:04:20;93618.59;;;35.37;26.69
10606;BME280;5350;42.698;23.148;2022-08-05T12:06:46;93622.88;;;35.38;27.74
10606;BME280;5350;42.698;23.148;2022-08-05T12:09:14;93620.25;;;35.56;26.51
10606;BME280;5350;42.698;23.148;2022-08-05T12:11:43;93608.00;;;35.70;25.36
10606;BME280;5350;42.698;23.148;2022-08-05T12:14:11;93613.94;;;35.68;24.97
10606;BME280;5350;42.698;23.148;2022-08-05T12:16:39;93615.34;;;35.73;28.83
10606;BME280;5350;42.698;23.148;2022-08-05T12:19:07;93607.50;;;35.84;24.93
10606;BME280;5350;42.698;23.148;2022-08-05T12:21:35;93608.47;;;35.99;27.54
10606;BME280;5350;42.698;23.148;2022-08-05T12:24:07;93604.50;;;36.40;28.24
10606;BME280;5350;42.698;23.148;2022-08-05T12:26:35;93603.50;;;36.73;27.35
10606;BME280;5350;42.698;23.148;2022-08-05T12:29:02;93613.13;;;37.14;27.14
10606;BME280;5350;42.698;23.148;2022-08-05T12:31:30;93603.84;;;37.12;26.80
10606;BME280;5350;42.698;23.148;2022-08-05T12:33:58;93616.59;;;36.69;25.36
10606;BME280;5350;42.698;23.148;2022-08-05T12:36:24;93608.59;;;36.35;25.44
10606;BME280;5350;42.698;23.148;2022-08-05T12:38:51;93600.31;;;36.08;25.17
10606;BME280;5350;42.698;23.148;2022-08-05T12:41:18;93605.09;;;35.64;25.93
10606;BME280;5350;42.698;23.148;2022-08-05T12:43:48;93597.59;;;35.56;25.68
10606;BME280;5350;42.698;23.148;2022-08-05T12:46:21;93599.16;;;35.57;25.70
10606;BME280;5350;42.698;23.148;2022-08-05T12:48:55;93588.63;;;35.55;25.86
10606;BME280;5350;42.698;23.148;2022-08-05T12:51:23;93593.75;;;35.75;26.02
10606;BME280;5350;42.698;23.148;2022-08-05T12:53:51;93583.09;;;35.98;26.75
10606;BME280;5350;42.698;23.148;2022-08-05T12:56:23;93581.41;;;36.50;25.34
10606;BME280;5350;42.698;23.148;2022-08-05T13:01:37;93575.50;;;36.78;24.80
10606;BME280;5350;42.698;23.148;2022-08-05T13:04:04;93587.50;;;36.54;25.39
10606;BME280;5350;42.698;23.148;2022-08-05T13:06:32;93580.06;;;36.54;25.80
10606;BME280;5350;42.698;23.148;2022-08-05T13:09:05;93575.53;;;36.88;26.00
10606;BME280;5350;42.698;23.148;2022-08-05T13:11:31;93581.88;;;36.57;27.43
10606;BME280;5350;42.698;23.148;2022-08-05T13:13:58;93577.94;;;36.76;26.76
10606;BME280;5350;42.698;23.148;2022-08-05T13:16:24;93565.44;;;37.12;25.29